sensor_id;sensor_type;location;lat;lon;timestamp;P1;durP1;ratioP1;P2;durP2;ratioP2
46348;SDS011;32057;47.830;19.046;2023-11-19T00:02:18;4.72;;;3.13;;
46348;SDS011;32057;47.830;19.046;2023-11-19T00:04:44;2.55;;;2.35;;
46348;SDS011;32057;47.830;19.046;2023-11-19T00:07:10;4.63;;;2.38;;
46348;SDS011;32057;47.830;19.046;2023-11-19T00:09:38;4.25;;;2.25;;
46348;SDS011;32057;47.830;19.046;2023-11-19T00:12:04;6.35;;;2.70;;
46348;SDS011;32057;47.830;19.046;2023-11-19T00:14:31;7.65;;;2.63;;
46348;SDS011;32057;47.830;19.046;2023-11-19T00:16:57;4.55;;;2.92;;
46348;SDS011;32057;47.830;19.046;2023-11-19T00:19:23;3.83;;;2.70;;
46348;SDS011;32057;47.830;19.046;2023-11-19T00:21:48;6.28;;;2.80;;
46348;SDS011;32057;47.830;19.046;2023-11-19T00:24:14;8.25;;;2.88;;
46348;SDS011;32057;47.830;19.046;2023-11-19T00:26:41;17.10;;;3.22;;
46348;SDS011;32057;47.830;19.046;2023-11-19T00:29:07;7.07;;;3.55;;
46348;SDS011;32057;47.830;19.046;2023-11-19T00:31:33;3.50;;;2.83;;
46348;SDS011;32057;47.830;19.046;2023-11-19T00:33:58;3.10;;;2.42;;
46348;SDS011;32057;47.830;19.046;2023-11-19T00:36:23;2.85;;;2.10;;
46348;SDS011;32057;47.830;19.046;2023-11-19T00:38:50;2.65;;;2.38;;
46348;SDS011;32057;47.830;19.046;2023-11-19T00:41:15;3.70;;;2.97;;
46348;SDS011;32057;47.830;19.046;2023-11-19T00:43:42;6.47;;;3.45;;
46348;SDS011;32057;47.830;19.046;2023-11-19T00:46:07;7.72;;;3.00;;
46348;SDS011;32057;47.830;19.046;2023-11-19T00:48:33;3.60;;;2.38;;
46348;SDS011;32057;47.830;19.046;2023-11-19T00:50:58;4.85;;;3.13;;
46348;SDS011;32057;47.830;19.046;2023-11-19T00:53:24;11.68;;;3.10;;
46348;SDS011;32057;47.830;19.046;2023-11-19T00:55:50;5.05;;;2.60;;
46348;SDS011;32057;47.830;19.046;2023-11-19T00:58:15;4.97;;;3.00;;
46348;SDS011;32057;47.830;19.046;2023-11-19T01:00:42;4.45;;;2.90;;
46348;SDS011;32057;47.830;19.046;2023-11-19T01:03:08;5.18;;;2.80;;
46348;SDS011;32057;47.830;19.046;2023-11-19T01:05:33;5.80;;;2.90;;
46348;SDS011;32057;47.830;19.046;2023-11-19T01:07:59;3.95;;;2.92;;
46348;SDS011;32057;47.830;19.046;2023-11-19T01:10:24;3.17;;;2.58;;
46348;SDS011;32057;47.830;19.046;2023-11-19T01:12:50;3.90;;;2.83;;
46348;SDS011;32057;47.830;19.046;2023-11-19T01:15:16;8.18;;;3.03;;
46348;SDS011;32057;47.830;19.046;2023-11-19T01:17:43;3.53;;;1.92;;
46348;SDS011;32057;47.830;19.046;2023-11-19T01:20:09;4.10;;;2.38;;
46348;SDS011;32057;47.830;19.046;2023-11-19T01:22:39;8.40;;;2.70;;
46348;SDS011;32057;47.830;19.046;2023-11-19T01:25:05;4.93;;;2.78;;
46348;SDS011;32057;47.830;19.046;2023-11-19T01:27:31;2.85;;;1.80;;
46348;SDS011;32057;47.830;19.046;2023-11-19T01:29:59;5.72;;;3.40;;
46348;SDS011;32057;47.830;19.046;2023-11-19T01:32:25;4.35;;;3.47;;
46348;SDS011;32057;47.830;19.046;2023-11-19T01:34:50;5.35;;;3.45;;
46348;SDS011;32057;47.830;19.046;2023-11-19T01:37:21;5.30;;;2.38;;
46348;SDS011;32057;47.830;19.046;2023-11-19T01:39:48;4.75;;;3.25;;
46348;SDS011;32057;47.830;19.046;2023-11-19T01:42:14;5.80;;;3.33;;
46348;SDS011;32057;47.830;19.046;2023-11-19T01:44:40;6.22;;;4.03;;
46348;SDS011;32057;47.830;19.046;2023-11-19T01:47:06;6.25;;;2.60;;
46348;SDS011;32057;47.830;19.046;2023-11-19T01:49:32;6.03;;;3.67;;
46348;SDS011;32057;47.830;19.046;2023-11-19T01:51:58;5.75;;;3.53;;
46348;SDS011;32057;47.830;19.046;2023-11-19T01:54:24;2.47;;;2.03;;
46348;SDS011;32057;47.830;19.046;2023-11-19T01:56:50;3.60;;;2.03;;
46348;SDS011;32057;47.830;19.046;2023-11-19T01:59:18;4.32;;;2.03;;
46348;SDS011;32057;47.830;19.046;2023-11-19T02:01:51;5.60;;;2.55;;
46348;SDS011;32057;47.830;19.046;2023-11-19T02:04:16;3.67;;;2.88;;
46348;SDS011;32057;47.830;19.046;2023-11-19T02:06:42;6.07;;;3.60;;
46348;SDS011;32057;47.830;19.046;2023-11-19T02:09:08;3.20;;;2.33;;
46348;SDS011;32057;47.830;19.046;2023-11-19T02:11:34;4.35;;;2.33;;
46348;SDS011;32057;47.830;19.046;2023-11-19T02:14:00;3.40;;;2.47;;
46348;SDS011;32057;47.830;19.046;2023-11-19T02:16:26;5.22;;;2.58;;
46348;SDS011;32057;47.830;19.046;2023-11-19T02:18:51;2.85;;;1.77;;
46348;SDS011;32057;47.830;19.046;2023-11-19T02:21:16;2.60;;;2.13;;
46348;SDS011;32057;47.830;19.046;2023-11-19T02:23:43;3.97;;;2.20;;
46348;SDS011;32057;47.830;19.046;2023-11-19T02:26:19;3.55;;;2.00;;
46348;SDS011;32057;47.830;19.046;2023-11-19T02:28:50;4.07;;;2.25;;
46348;SDS011;32057;47.830;19.046;2023-11-19T02:31:16;4.18;;;2.72;;
46348;SDS011;32057;47.830;19.046;2023-11-19T02:33:41;5.63;;;3.22;;
46348;SDS011;32057;47.830;19.046;2023-11-19T02:36:07;4.80;;;2.78;;
46348;SDS011;32057;47.830;19.046;2023-11-19T02:38:33;3.95;;;2.78;;
46348;SDS011;32057;47.830;19.046;2023-11-19T02:40:59;3.92;;;2.25;;
46348;SDS011;32057;47.830;19.046;2023-11-19T02:43:27;7.03;;;2.97;;
46348;SDS011;32057;47.830;19.046;2023-11-19T02:45:53;6.45;;;3.05;;
46348;SDS011;32057;47.830;19.046;2023-11-19T02:48:20;3.22;;;1.80;;
46348;SDS011;32057;47.830;19.046;2023-11-19T02:50:46;3.22;;;1.95;;
46348;SDS011;32057;47.830;19.046;2023-11-19T02:53:13;2.50;;;2.30;;
46348;SDS011;32057;47.830;19.046;2023-11-19T02:55:38;3.33;;;2.05;;
46348;SDS011;32057;47.830;19.046;2023-11-19T02:58:06;2.55;;;1.70;;
46348;SDS011;32057;47.830;19.046;2023-11-19T03:00:44;3.03;;;1.85;;
46348;SDS011;32057;47.830;19.046;2023-11-19T03:03:19;2.83;;;2.13;;
46348;SDS011;32057;47.830;19.046;2023-11-19T03:05:51;4.93;;;1.65;;
46348;SDS011;32057;47.830;19.046;2023-11-19T03:08:16;2.53;;;1.95;;
46348;SDS011;32057;47.830;19.046;2023-11-19T03:10:42;3.00;;;1.48;;
46348;SDS011;32057;47.830;19.046;2023-11-19T03:13:11;7.47;;;2.30;;
46348;SDS011;32057;47.830;19.046;2023-11-19T03:15:39;6.00;;;2.22;;
46348;SDS011;32057;47.830;19.046;2023-11-19T03:18:04;4.43;;;3.40;;
46348;SDS011;32057;47.830;19.046;2023-11-19T03:20:30;4.22;;;2.55;;
46348;SDS011;32057;47.830;19.046;2023-11-19T03:22:55;4.22;;;3.40;;
46348;SDS011;32057;47.830;19.046;2023-11-19T03:25:34;5.25;;;3.00;;
46348;SDS011;32057;47.830;19.046;2023-11-19T03:28:03;4.88;;;2.20;;
46348;SDS011;32057;47.830;19.046;2023-11-19T03:30:33;2.08;;;1.73;;
46348;SDS011;32057;47.830;19.046;2023-11-19T03:33:05;2.35;;;2.20;;
46348;SDS011;32057;47.830;19.046;2023-11-19T03:35:32;3.85;;;2.72;;
46348;SDS011;32057;47.830;19.046;2023-11-19T03:37:58;3.95;;;2.22;;
46348;SDS011;32057;47.830;19.046;2023-11-19T03:40:23;6.60;;;2.22;;
46348;SDS011;32057;47.830;19.046;2023-11-19T03:42:50;1.05;;;1.05;;
46348;SDS011;32057;47.830;19.046;2023-11-19T03:45:16;3.50;;;2.83;;
46348;SDS011;32057;47.830;19.046;2023-11-19T03:47:41;5.57;;;2.28;;
46348;SDS011;32057;47.830;19.046;2023-11-19T03:50:07;1.35;;;1.25;;
46348;SDS011;32057;47.830;19.046;2023-11-19T03:52:34;3.65;;;2.45;;
46348;SDS011;32057;47.830;19.046;2023-11-19T03:54:59;4.18;;;2.22;;
46348;SDS011;32057;47.830;19.046;2023-11-19T03:57:25;4.30;;;2.63;;
46348;SDS011;32057;47.830;19.046;2023-11-19T03:59:53;2.75;;;1.73;;
46348;SDS011;32057;47.830;19.046;2023-11-19T04:02:18;1.83;;;1.73;;
46348;SDS011;32057;47.830;19.046;2023-11-19T04:04:44;3.42;;;2.25;;
46348;SDS011;32057;47.830;19.046;2023-11-19T04:07:09;3.25;;;2.15;;
46348;SDS011;32057;47.830;19.046;2023-11-19T04:09:35;2.53;;;1.60;;
46348;SDS011;32057;47.830;19.046;2023-11-19T04:12:02;2.83;;;1.65;;
46348;SDS011;32057;47.830;19.046;2023-11-19T04:14:28;2.45;;;1.67;;
46348;SDS011;32057;47.830;19.046;2023-11-19T04:16:53;4.80;;;2.20;;
46348;SDS011;32057;47.830;19.046;2023-11-19T04:19:19;5.10;;;3.22;;
46348;SDS011;32057;47.830;19.046;2023-11-19T04:21:45;1.58;;;1.48;;
46348;SDS011;32057;47.830;19.046;2023-11-19T04:24:11;2.15;;;1.85;;
46348;SDS011;32057;47.830;19.046;2023-11-19T04:26:44;5.93;;;3.40;;
46348;SDS011;32057;47.830;19.046;2023-11-19T04:29:14;20.98;;;5.18;;
46348;SDS011;32057;47.830;19.046;2023-11-19T04:31:42;24.42;;;5.05;;
46348;SDS011;32057;47.830;19.046;2023-11-19T04:34:08;10.43;;;4.03;;
46348;SDS011;32057;47.830;19.046;2023-11-19T04:36:33;2.70;;;2.05;;
46348;SDS011;32057;47.830;19.046;2023-11-19T04:38:59;4.97;;;1.90;;
46348;SDS011;32057;47.830;19.046;2023-11-19T04:41:26;3.10;;;2.25;;
46348;SDS011;32057;47.830;19.046;2023-11-19T04:43:55;6.82;;;1.92;;
46348;SDS011;32057;47.830;19.046;2023-11-19T04:46:20;5.43;;;2.05;;
46348;SDS011;32057;47.830;19.046;2023-11-19T04:48:46;4.57;;;1.90;;
46348;SDS011;32057;47.830;19.046;2023-11-19T04:51:11;3.40;;;2.55;;
46348;SDS011;32057;47.830;19.046;2023-11-19T04:53:37;3.42;;;2.03;;
46348;SDS011;32057;47.830;19.046;2023-11-19T04:56:08;3.05;;;2.53;;
46348;SDS011;32057;47.830;19.046;2023-11-19T04:58:34;1.77;;;1.45;;
46348;SDS011;32057;47.830;19.046;2023-11-19T05:01:02;2.60;;;2.05;;
46348;SDS011;32057;47.830;19.046;2023-11-19T05:03:30;6.53;;;2.38;;
46348;SDS011;32057;47.830;19.046;2023-11-19T05:05:56;4.60;;;1.70;;
46348;SDS011;32057;47.830;19.046;2023-11-19T05:08:22;3.30;;;1.98;;
46348;SDS011;32057;47.830;19.046;2023-11-19T05:10:47;8.13;;;2.97;;
46348;SDS011;32057;47.830;19.046;2023-11-19T05:13:13;2.75;;;1.88;;
46348;SDS011;32057;47.830;19.046;2023-11-19T05:15:38;5.90;;;2.50;;
46348;SDS011;32057;47.830;19.046;2023-11-19T05:18:04;7.72;;;2.33;;
46348;SDS011;32057;47.830;19.046;2023-11-19T05:20:30;8.20;;;2.20;;
46348;SDS011;32057;47.830;19.046;2023-11-19T05:22:55;2.88;;;2.60;;
46348;SDS011;32057;47.830;19.046;2023-11-19T05:25:20;4.65;;;2.40;;
46348;SDS011;32057;47.830;19.046;2023-11-19T05:27:46;5.45;;;4.07;;
46348;SDS011;32057;47.830;19.046;2023-11-19T05:30:11;3.30;;;1.98;;
46348;SDS011;32057;47.830;19.046;2023-11-19T05:32:37;3.70;;;2.60;;
46348;SDS011;32057;47.830;19.046;2023-11-19T05:35:02;8.63;;;2.92;;
46348;SDS011;32057;47.830;19.046;2023-11-19T05:37:28;3.83;;;1.88;;
46348;SDS011;32057;47.830;19.046;2023-11-19T05:39:54;2.63;;;2.13;;
46348;SDS011;32057;47.830;19.046;2023-11-19T05:42:21;8.80;;;3.42;;
46348;SDS011;32057;47.830;19.046;2023-11-19T05:44:47;9.88;;;3.15;;
46348;SDS011;32057;47.830;19.046;2023-11-19T05:47:13;10.23;;;2.15;;
46348;SDS011;32057;47.830;19.046;2023-11-19T05:49:39;4.20;;;2.03;;
46348;SDS011;32057;47.830;19.046;2023-11-19T05:52:04;6.82;;;1.95;;
46348;SDS011;32057;47.830;19.046;2023-11-19T05:54:32;3.03;;;2.67;;
46348;SDS011;32057;47.830;19.046;2023-11-19T05:57:03;2.33;;;1.52;;
46348;SDS011;32057;47.830;19.046;2023-11-19T05:59:30;4.03;;;2.10;;
46348;SDS011;32057;47.830;19.046;2023-11-19T06:01:58;2.47;;;1.83;;
46348;SDS011;32057;47.830;19.046;2023-11-19T06:04:24;2.97;;;2.28;;
46348;SDS011;32057;47.830;19.046;2023-11-19T06:06:51;5.10;;;1.90;;
46348;SDS011;32057;47.830;19.046;2023-11-19T06:09:16;1.92;;;1.65;;
46348;SDS011;32057;47.830;19.046;2023-11-19T06:11:43;2.45;;;2.03;;
46348;SDS011;32057;47.830;19.046;2023-11-19T06:14:09;2.17;;;1.92;;
46348;SDS011;32057;47.830;19.046;2023-11-19T06:16:36;2.42;;;2.15;;
46348;SDS011;32057;47.830;19.046;2023-11-19T06:19:01;2.05;;;1.77;;
46348;SDS011;32057;47.830;19.046;2023-11-19T06:21:27;3.95;;;3.42;;
46348;SDS011;32057;47.830;19.046;2023-11-19T06:23:52;7.22;;;2.70;;
46348;SDS011;32057;47.830;19.046;2023-11-19T06:26:18;7.65;;;3.85;;
46348;SDS011;32057;47.830;19.046;2023-11-19T06:28:44;3.10;;;2.80;;
46348;SDS011;32057;47.830;19.046;2023-11-19T06:31:09;6.85;;;3.45;;
46348;SDS011;32057;47.830;19.046;2023-11-19T06:33:35;2.72;;;2.35;;
46348;SDS011;32057;47.830;19.046;2023-11-19T06:36:00;4.38;;;2.65;;
46348;SDS011;32057;47.830;19.046;2023-11-19T06:38:26;3.30;;;2.88;;
46348;SDS011;32057;47.830;19.046;2023-11-19T06:40:51;4.88;;;2.20;;
46348;SDS011;32057;47.830;19.046;2023-11-19T06:43:19;3.20;;;1.80;;
46348;SDS011;32057;47.830;19.046;2023-11-19T06:45:47;6.65;;;2.10;;
46348;SDS011;32057;47.830;19.046;2023-11-19T06:48:12;3.70;;;2.38;;
46348;SDS011;32057;47.830;19.046;2023-11-19T06:50:38;3.75;;;2.38;;
46348;SDS011;32057;47.830;19.046;2023-11-19T06:53:03;3.90;;;2.53;;
46348;SDS011;32057;47.830;19.046;2023-11-19T06:55:31;5.28;;;3.65;;
46348;SDS011;32057;47.830;19.046;2023-11-19T06:57:57;4.40;;;2.38;;
46348;SDS011;32057;47.830;19.046;2023-11-19T07:00:25;10.95;;;3.05;;
46348;SDS011;32057;47.830;19.046;2023-11-19T07:02:50;4.53;;;3.03;;
46348;SDS011;32057;47.830;19.046;2023-11-19T07:05:16;3.22;;;2.78;;
46348;SDS011;32057;47.830;19.046;2023-11-19T07:07:41;4.43;;;2.70;;
46348;SDS011;32057;47.830;19.046;2023-11-19T07:10:07;3.13;;;2.30;;
46348;SDS011;32057;47.830;19.046;2023-11-19T07:12:34;4.13;;;2.80;;
46348;SDS011;32057;47.830;19.046;2023-11-19T07:15:00;4.90;;;2.63;;
46348;SDS011;32057;47.830;19.046;2023-11-19T07:17:27;6.07;;;3.42;;
46348;SDS011;32057;47.830;19.046;2023-11-19T07:19:52;13.50;;;5.75;;
46348;SDS011;32057;47.830;19.046;2023-11-19T07:22:18;6.72;;;4.82;;
46348;SDS011;32057;47.830;19.046;2023-11-19T07:24:43;11.02;;;5.90;;
46348;SDS011;32057;47.830;19.046;2023-11-19T07:27:10;33.17;;;8.23;;
46348;SDS011;32057;47.830;19.046;2023-11-19T07:29:35;11.60;;;6.85;;
46348;SDS011;32057;47.830;19.046;2023-11-19T07:32:01;15.93;;;7.10;;
46348;SDS011;32057;47.830;19.046;2023-11-19T07:34:30;16.08;;;10.25;;
46348;SDS011;32057;47.830;19.046;2023-11-19T07:36:55;26.90;;;14.98;;
46348;SDS011;32057;47.830;19.046;2023-11-19T07:39:27;36.83;;;12.35;;
46348;SDS011;32057;47.830;19.046;2023-11-19T07:41:52;26.98;;;12.45;;
46348;SDS011;32057;47.830;19.046;2023-11-19T07:44:18;21.52;;;10.95;;
46348;SDS011;32057;47.830;19.046;2023-11-19T07:46:43;22.75;;;10.45;;
46348;SDS011;32057;47.830;19.046;2023-11-19T07:49:10;15.82;;;9.90;;
46348;SDS011;32057;47.830;19.046;2023-11-19T07:51:35;15.55;;;8.43;;
46348;SDS011;32057;47.830;19.046;2023-11-19T07:54:01;17.13;;;9.27;;
46348;SDS011;32057;47.830;19.046;2023-11-19T07:56:27;18.63;;;8.27;;
46348;SDS011;32057;47.830;19.046;2023-11-19T07:58:52;18.52;;;9.98;;
46348;SDS011;32057;47.830;19.046;2023-11-19T08:01:18;19.02;;;8.35;;
46348;SDS011;32057;47.830;19.046;2023-11-19T08:03:43;18.50;;;8.68;;
46348;SDS011;32057;47.830;19.046;2023-11-19T08:06:09;15.80;;;8.63;;
46348;SDS011;32057;47.830;19.046;2023-11-19T08:08:34;13.93;;;9.00;;
46348;SDS011;32057;47.830;19.046;2023-11-19T08:11:00;13.98;;;7.03;;
46348;SDS011;32057;47.830;19.046;2023-11-19T08:13:27;13.68;;;7.30;;
46348;SDS011;32057;47.830;19.046;2023-11-19T08:15:53;11.88;;;5.70;;
46348;SDS011;32057;47.830;19.046;2023-11-19T08:18:18;12.48;;;7.25;;
46348;SDS011;32057;47.830;19.046;2023-11-19T08:20:44;12.50;;;6.30;;
46348;SDS011;32057;47.830;19.046;2023-11-19T08:23:10;8.70;;;5.03;;
46348;SDS011;32057;47.830;19.046;2023-11-19T08:25:35;8.85;;;4.25;;
46348;SDS011;32057;47.830;19.046;2023-11-19T08:28:01;8.00;;;4.53;;
46348;SDS011;32057;47.830;19.046;2023-11-19T08:30:26;5.55;;;3.53;;
46348;SDS011;32057;47.830;19.046;2023-11-19T08:32:52;5.90;;;4.15;;
46348;SDS011;32057;47.830;19.046;2023-11-19T08:35:17;7.68;;;5.00;;
46348;SDS011;32057;47.830;19.046;2023-11-19T08:37:43;10.38;;;5.22;;
46348;SDS011;32057;47.830;19.046;2023-11-19T08:40:10;9.68;;;6.40;;
46348;SDS011;32057;47.830;19.046;2023-11-19T08:42:37;9.20;;;5.07;;
46348;SDS011;32057;47.830;19.046;2023-11-19T08:45:04;7.53;;;5.10;;
46348;SDS011;32057;47.830;19.046;2023-11-19T08:47:30;8.20;;;4.82;;
46348;SDS011;32057;47.830;19.046;2023-11-19T08:49:55;8.85;;;5.13;;
46348;SDS011;32057;47.830;19.046;2023-11-19T08:52:20;9.55;;;5.50;;
46348;SDS011;32057;47.830;19.046;2023-11-19T08:54:46;6.82;;;5.97;;
46348;SDS011;32057;47.830;19.046;2023-11-19T08:57:11;7.43;;;5.00;;
46348;SDS011;32057;47.830;19.046;2023-11-19T08:59:37;8.02;;;5.50;;
46348;SDS011;32057;47.830;19.046;2023-11-19T09:02:05;9.73;;;5.07;;
46348;SDS011;32057;47.830;19.046;2023-11-19T09:04:32;10.60;;;6.20;;
46348;SDS011;32057;47.830;19.046;2023-11-19T09:06:57;7.25;;;4.82;;
46348;SDS011;32057;47.830;19.046;2023-11-19T09:09:23;12.63;;;6.45;;
46348;SDS011;32057;47.830;19.046;2023-11-19T09:11:48;8.10;;;5.78;;
46348;SDS011;32057;47.830;19.046;2023-11-19T09:14:14;21.25;;;5.90;;
46348;SDS011;32057;47.830;19.046;2023-11-19T09:16:39;8.52;;;5.43;;
46348;SDS011;32057;47.830;19.046;2023-11-19T09:19:04;7.32;;;5.70;;
46348;SDS011;32057;47.830;19.046;2023-11-19T09:21:30;6.68;;;4.38;;
46348;SDS011;32057;47.830;19.046;2023-11-19T09:23:55;15.38;;;6.32;;
46348;SDS011;32057;47.830;19.046;2023-11-19T09:26:21;10.10;;;5.40;;
46348;SDS011;32057;47.830;19.046;2023-11-19T09:28:46;9.85;;;6.07;;
46348;SDS011;32057;47.830;19.046;2023-11-19T09:31:16;10.95;;;6.50;;
46348;SDS011;32057;47.830;19.046;2023-11-19T09:33:43;6.60;;;4.60;;
46348;SDS011;32057;47.830;19.046;2023-11-19T09:36:09;10.80;;;6.88;;
46348;SDS011;32057;47.830;19.046;2023-11-19T09:38:37;8.38;;;6.68;;
46348;SDS011;32057;47.830;19.046;2023-11-19T09:41:06;10.10;;;6.00;;
46348;SDS011;32057;47.830;19.046;2023-11-19T09:43:37;12.38;;;5.97;;
46348;SDS011;32057;47.830;19.046;2023-11-19T09:46:04;10.60;;;6.75;;
46348;SDS011;32057;47.830;19.046;2023-11-19T09:48:35;12.20;;;6.55;;
46348;SDS011;32057;47.830;19.046;2023-11-19T09:51:02;10.70;;;5.93;;
46348;SDS011;32057;47.830;19.046;2023-11-19T09:53:28;10.82;;;6.30;;
46348;SDS011;32057;47.830;19.046;2023-11-19T09:55:53;10.63;;;6.53;;
46348;SDS011;32057;47.830;19.046;2023-11-19T09:58:20;12.82;;;5.72;;
46348;SDS011;32057;47.830;19.046;2023-11-19T10:00:46;11.90;;;5.68;;
46348;SDS011;32057;47.830;19.046;2023-11-19T10:03:13;7.20;;;5.03;;
46348;SDS011;32057;47.830;19.046;2023-11-19T10:05:39;11.25;;;6.75;;
46348;SDS011;32057;47.830;19.046;2023-11-19T10:08:05;13.10;;;6.80;;
46348;SDS011;32057;47.830;19.046;2023-11-19T10:10:31;14.30;;;6.25;;
46348;SDS011;32057;47.830;19.046;2023-11-19T10:12:57;10.45;;;6.18;;
46348;SDS011;32057;47.830;19.046;2023-11-19T10:15:23;28.52;;;7.40;;
46348;SDS011;32057;47.830;19.046;2023-11-19T10:17:51;15.38;;;5.68;;
46348;SDS011;32057;47.830;19.046;2023-11-19T10:20:17;13.15;;;6.35;;
46348;SDS011;32057;47.830;19.046;2023-11-19T10:22:42;12.85;;;6.72;;
46348;SDS011;32057;47.830;19.046;2023-11-19T10:25:24;7.85;;;5.70;;
46348;SDS011;32057;47.830;19.046;2023-11-19T10:27:51;10.48;;;6.90;;
46348;SDS011;32057;47.830;19.046;2023-11-19T10:30:27;11.80;;;6.32;;
46348;SDS011;32057;47.830;19.046;2023-11-19T10:35:33;9.13;;;5.82;;
46348;SDS011;32057;47.830;19.046;2023-11-19T10:38:00;20.50;;;5.00;;
46348;SDS011;32057;47.830;19.046;2023-11-19T10:40:38;9.43;;;5.28;;
46348;SDS011;32057;47.830;19.046;2023-11-19T10:43:07;9.70;;;6.38;;
46348;SDS011;32057;47.830;19.046;2023-11-19T10:45:34;8.65;;;5.53;;
46348;SDS011;32057;47.830;19.046;2023-11-19T10:48:03;9.32;;;6.75;;
46348;SDS011;32057;47.830;19.046;2023-11-19T10:50:39;8.63;;;5.88;;
46348;SDS011;32057;47.830;19.046;2023-11-19T10:53:06;9.95;;;6.32;;
46348;SDS011;32057;47.830;19.046;2023-11-19T10:55:34;12.10;;;6.97;;
46348;SDS011;32057;47.830;19.046;2023-11-19T10:58:02;14.02;;;6.10;;
46348;SDS011;32057;47.830;19.046;2023-11-19T11:00:29;11.43;;;7.20;;
46348;SDS011;32057;47.830;19.046;2023-11-19T11:03:01;10.73;;;7.00;;
46348;SDS011;32057;47.830;19.046;2023-11-19T11:05:32;9.55;;;6.90;;
46348;SDS011;32057;47.830;19.046;2023-11-19T11:08:00;10.85;;;7.53;;
46348;SDS011;32057;47.830;19.046;2023-11-19T11:10:27;15.73;;;8.88;;
46348;SDS011;32057;47.830;19.046;2023-11-19T11:12:54;13.60;;;7.10;;
46348;SDS011;32057;47.830;19.046;2023-11-19T11:15:32;9.57;;;6.07;;
46348;SDS011;32057;47.830;19.046;2023-11-19T11:18:01;12.15;;;6.60;;
46348;SDS011;32057;47.830;19.046;2023-11-19T11:20:30;10.65;;;6.88;;
46348;SDS011;32057;47.830;19.046;2023-11-19T11:39:45;11.27;;;7.05;;
46348;SDS011;32057;47.830;19.046;2023-11-19T11:50:09;11.77;;;7.20;;
46348;SDS011;32057;47.830;19.046;2023-11-19T11:55:37;16.92;;;7.22;;
46348;SDS011;32057;47.830;19.046;2023-11-19T11:58:17;8.73;;;5.88;;
46348;SDS011;32057;47.830;19.046;2023-11-19T12:01:02;13.93;;;7.10;;
46348;SDS011;32057;47.830;19.046;2023-11-19T12:03:31;9.35;;;6.22;;
46348;SDS011;32057;47.830;19.046;2023-11-19T12:05:57;16.00;;;7.28;;
46348;SDS011;32057;47.830;19.046;2023-11-19T12:08:27;21.00;;;6.78;;
46348;SDS011;32057;47.830;19.046;2023-11-19T12:10:55;12.10;;;7.45;;
46348;SDS011;32057;47.830;19.046;2023-11-19T12:13:24;23.85;;;8.57;;
46348;SDS011;32057;47.830;19.046;2023-11-19T12:18:29;15.02;;;6.63;;
46348;SDS011;32057;47.830;19.046;2023-11-19T12:20:56;9.85;;;6.47;;
46348;SDS011;32057;47.830;19.046;2023-11-19T12:23:25;9.90;;;6.88;;
46348;SDS011;32057;47.830;19.046;2023-11-19T12:25:51;8.30;;;6.40;;
46348;SDS011;32057;47.830;19.046;2023-11-19T12:28:17;9.75;;;6.03;;
46348;SDS011;32057;47.830;19.046;2023-11-19T12:30:44;9.50;;;5.15;;
46348;SDS011;32057;47.830;19.046;2023-11-19T12:33:10;9.18;;;5.95;;
46348;SDS011;32057;47.830;19.046;2023-11-19T12:35:39;7.05;;;5.43;;
46348;SDS011;32057;47.830;19.046;2023-11-19T12:38:25;10.20;;;6.10;;
46348;SDS011;32057;47.830;19.046;2023-11-19T12:41:07;9.98;;;6.00;;
46348;SDS011;32057;47.830;19.046;2023-11-19T12:43:35;13.18;;;7.28;;
46348;SDS011;32057;47.830;19.046;2023-11-19T12:46:02;9.80;;;5.95;;
46348;SDS011;32057;47.830;19.046;2023-11-19T12:48:41;10.45;;;6.50;;
46348;SDS011;32057;47.830;19.046;2023-11-19T12:51:07;7.43;;;4.88;;
46348;SDS011;32057;47.830;19.046;2023-11-19T12:53:46;10.38;;;5.82;;
46348;SDS011;32057;47.830;19.046;2023-11-19T12:56:17;8.73;;;5.57;;
46348;SDS011;32057;47.830;19.046;2023-11-19T12:58:42;8.05;;;5.35;;
46348;SDS011;32057;47.830;19.046;2023-11-19T13:01:08;11.75;;;6.30;;
46348;SDS011;32057;47.830;19.046;2023-11-19T13:03:37;8.35;;;5.53;;
46348;SDS011;32057;47.830;19.046;2023-11-19T13:06:10;8.13;;;5.55;;
46348;SDS011;32057;47.830;19.046;2023-11-19T13:08:44;9.05;;;6.47;;
46348;SDS011;32057;47.830;19.046;2023-11-19T13:11:29;10.57;;;6.57;;
46348;SDS011;32057;47.830;19.046;2023-11-19T13:16:25;9.35;;;5.60;;
46348;SDS011;32057;47.830;19.046;2023-11-19T13:18:51;8.30;;;5.97;;
46348;SDS011;32057;47.830;19.046;2023-11-19T13:21:17;10.00;;;6.70;;
46348;SDS011;32057;47.830;19.046;2023-11-19T13:23:43;11.00;;;5.38;;
46348;SDS011;32057;47.830;19.046;2023-11-19T13:26:08;9.23;;;6.32;;
46348;SDS011;32057;47.830;19.046;2023-11-19T13:28:34;11.27;;;7.20;;
46348;SDS011;32057;47.830;19.046;2023-11-19T13:30:59;9.30;;;5.88;;
46348;SDS011;32057;47.830;19.046;2023-11-19T13:33:25;11.90;;;6.20;;
46348;SDS011;32057;47.830;19.046;2023-11-19T13:35:51;10.75;;;5.22;;
46348;SDS011;32057;47.830;19.046;2023-11-19T13:38:17;8.48;;;5.63;;
46348;SDS011;32057;47.830;19.046;2023-11-19T13:40:42;7.88;;;5.40;;
46348;SDS011;32057;47.830;19.046;2023-11-19T13:43:08;10.20;;;6.10;;
46348;SDS011;32057;47.830;19.046;2023-11-19T13:45:33;11.07;;;6.57;;
46348;SDS011;32057;47.830;19.046;2023-11-19T13:47:59;8.55;;;5.63;;
46348;SDS011;32057;47.830;19.046;2023-11-19T13:50:24;9.10;;;6.45;;
46348;SDS011;32057;47.830;19.046;2023-11-19T13:52:50;12.18;;;6.32;;
46348;SDS011;32057;47.830;19.046;2023-11-19T13:55:16;8.80;;;6.10;;
46348;SDS011;32057;47.830;19.046;2023-11-19T13:57:42;9.90;;;6.80;;
46348;SDS011;32057;47.830;19.046;2023-11-19T14:00:09;8.55;;;6.10;;
46348;SDS011;32057;47.830;19.046;2023-11-19T14:02:38;8.60;;;5.78;;
46348;SDS011;32057;47.830;19.046;2023-11-19T14:05:05;14.30;;;6.05;;
46348;SDS011;32057;47.830;19.046;2023-11-19T14:07:31;10.55;;;5.63;;
46348;SDS011;32057;47.830;19.046;2023-11-19T14:09:56;7.60;;;6.50;;
46348;SDS011;32057;47.830;19.046;2023-11-19T14:12:22;8.77;;;5.85;;
46348;SDS011;32057;47.830;19.046;2023-11-19T14:14:47;12.70;;;6.38;;
46348;SDS011;32057;47.830;19.046;2023-11-19T14:17:13;9.15;;;5.45;;
46348;SDS011;32057;47.830;19.046;2023-11-19T14:19:40;8.10;;;5.38;;
46348;SDS011;32057;47.830;19.046;2023-11-19T14:22:06;15.32;;;7.13;;
46348;SDS011;32057;47.830;19.046;2023-11-19T14:24:31;10.45;;;5.82;;
46348;SDS011;32057;47.830;19.046;2023-11-19T14:26:57;9.05;;;6.22;;
46348;SDS011;32057;47.830;19.046;2023-11-19T14:29:26;10.88;;;6.45;;
46348;SDS011;32057;47.830;19.046;2023-11-19T14:31:51;9.77;;;6.20;;
46348;SDS011;32057;47.830;19.046;2023-11-19T14:34:19;9.90;;;6.80;;
46348;SDS011;32057;47.830;19.046;2023-11-19T14:36:45;11.35;;;5.72;;
46348;SDS011;32057;47.830;19.046;2023-11-19T14:39:10;6.35;;;5.57;;
46348;SDS011;32057;47.830;19.046;2023-11-19T14:41:36;10.73;;;6.65;;
46348;SDS011;32057;47.830;19.046;2023-11-19T14:44:01;9.13;;;6.30;;
46348;SDS011;32057;47.830;19.046;2023-11-19T14:46:28;9.48;;;6.25;;
46348;SDS011;32057;47.830;19.046;2023-11-19T14:48:54;9.98;;;6.63;;
46348;SDS011;32057;47.830;19.046;2023-11-19T14:51:19;13.23;;;7.05;;
46348;SDS011;32057;47.830;19.046;2023-11-19T14:53:45;13.00;;;6.93;;
46348;SDS011;32057;47.830;19.046;2023-11-19T14:56:11;11.75;;;6.47;;
46348;SDS011;32057;47.830;19.046;2023-11-19T14:58:38;10.68;;;6.82;;
46348;SDS011;32057;47.830;19.046;2023-11-19T15:01:03;13.15;;;7.07;;
46348;SDS011;32057;47.830;19.046;2023-11-19T15:03:29;10.35;;;6.95;;
46348;SDS011;32057;47.830;19.046;2023-11-19T15:05:55;10.77;;;6.57;;